sensor_id;sensor_type;location;lat;lon;timestamp;P1;durP1;ratioP1;P2;durP2;ratioP2
18820;SDS011;9539;59.332;18.034;2022-08-19T00:02:19;57.47;;;24.83;;
18820;SDS011;9539;59.332;18.034;2022-08-19T00:04:45;49.15;;;27.52;;
18820;SDS011;9539;59.332;18.034;2022-08-19T00:07:17;55.25;;;26.58;;
18820;SDS011;9539;59.332;18.034;2022-08-19T00:09:44;59.17;;;27.67;;
18820;SDS011;9539;59.332;18.034;2022-08-19T00:12:10;58.80;;;28.45;;
18820;SDS011;9539;59.332;18.034;2022-08-19T00:14:37;82.15;;;30.65;;
18820;SDS011;9539;59.332;18.034;2022-08-19T00:17:07;63.72;;;28.50;;
18820;SDS011;9539;59.332;18.034;2022-08-19T00:19:35;61.90;;;29.88;;
18820;SDS011;9539;59.332;18.034;2022-08-19T00:22:02;62.97;;;29.88;;
18820;SDS011;9539;59.332;18.034;2022-08-19T00:24:30;74.55;;;31.95;;
18820;SDS011;9539;59.332;18.034;2022-08-19T00:26:57;83.55;;;33.95;;
18820;SDS011;9539;59.332;18.034;2022-08-19T00:29:24;66.80;;;31.15;;
18820;SDS011;9539;59.332;18.034;2022-08-19T00:31:51;75.50;;;33.30;;
18820;SDS011;9539;59.332;18.034;2022-08-19T00:34:22;73.97;;;32.35;;
18820;SDS011;9539;59.332;18.034;2022-08-19T00:36:50;75.70;;;32.17;;
18820;SDS011;9539;59.332;18.034;2022-08-19T00:39:17;79.40;;;34.00;;
18820;SDS011;9539;59.332;18.034;2022-08-19T00:41:44;76.82;;;33.97;;
18820;SDS011;9539;59.332;18.034;2022-08-19T00:44:13;76.97;;;33.63;;
18820;SDS011;9539;59.332;18.034;2022-08-19T00:46:44;71.63;;;34.08;;
18820;SDS011;9539;59.332;18.034;2022-08-19T00:49:14;72.97;;;33.00;;
18820;SDS011;9539;59.332;18.034;2022-08-19T00:51:47;68.10;;;32.28;;
18820;SDS011;9539;59.332;18.034;2022-08-19T00:54:18;68.45;;;32.55;;
18820;SDS011;9539;59.332;18.034;2022-08-19T00:56:47;62.67;;;31.63;;
18820;SDS011;9539;59.332;18.034;2022-08-19T00:59:15;61.00;;;31.42;;
18820;SDS011;9539;59.332;18.034;2022-08-19T01:01:43;51.05;;;29.15;;
18820;SDS011;9539;59.332;18.034;2022-08-19T01:04:13;65.43;;;31.15;;
18820;SDS011;9539;59.332;18.034;2022-08-19T01:06:40;50.42;;;29.13;;
18820;SDS011;9539;59.332;18.034;2022-08-19T01:09:08;50.67;;;28.23;;
18820;SDS011;9539;59.332;18.034;2022-08-19T01:11:36;42.47;;;27.67;;
18820;SDS011;9539;59.332;18.034;2022-08-19T01:14:06;42.05;;;27.77;;
18820;SDS011;9539;59.332;18.034;2022-08-19T01:16:34;44.78;;;27.23;;
18820;SDS011;9539;59.332;18.034;2022-08-19T01:19:02;46.17;;;28.10;;
18820;SDS011;9539;59.332;18.034;2022-08-19T01:21:37;47.55;;;27.50;;
18820;SDS011;9539;59.332;18.034;2022-08-19T01:24:08;46.50;;;28.10;;
18820;SDS011;9539;59.332;18.034;2022-08-19T01:26:37;35.55;;;25.45;;
18820;SDS011;9539;59.332;18.034;2022-08-19T01:29:06;42.50;;;27.20;;
18820;SDS011;9539;59.332;18.034;2022-08-19T01:31:33;37.92;;;25.50;;
18820;SDS011;9539;59.332;18.034;2022-08-19T01:34:00;41.28;;;28.38;;
18820;SDS011;9539;59.332;18.034;2022-08-19T01:36:28;43.90;;;27.48;;
18820;SDS011;9539;59.332;18.034;2022-08-19T01:38:57;44.28;;;27.17;;
18820;SDS011;9539;59.332;18.034;2022-08-19T01:41:26;41.95;;;27.85;;
18820;SDS011;9539;59.332;18.034;2022-08-19T01:43:52;49.75;;;29.15;;
18820;SDS011;9539;59.332;18.034;2022-08-19T01:46:21;51.72;;;30.77;;
18820;SDS011;9539;59.332;18.034;2022-08-19T01:48:48;48.97;;;28.98;;
18820;SDS011;9539;59.332;18.034;2022-08-19T01:51:15;43.80;;;29.67;;
18820;SDS011;9539;59.332;18.034;2022-08-19T01:53:42;41.60;;;28.70;;
18820;SDS011;9539;59.332;18.034;2022-08-19T01:56:08;51.83;;;29.23;;
18820;SDS011;9539;59.332;18.034;2022-08-19T01:58:38;50.65;;;30.08;;
18820;SDS011;9539;59.332;18.034;2022-08-19T02:01:10;46.13;;;29.75;;
18820;SDS011;9539;59.332;18.034;2022-08-19T02:03:36;55.80;;;32.33;;
18820;SDS011;9539;59.332;18.034;2022-08-19T02:06:03;52.78;;;30.65;;
18820;SDS011;9539;59.332;18.034;2022-08-19T02:08:31;50.40;;;29.85;;
18820;SDS011;9539;59.332;18.034;2022-08-19T02:11:00;48.60;;;30.35;;
18820;SDS011;9539;59.332;18.034;2022-08-19T02:13:27;44.17;;;28.33;;
18820;SDS011;9539;59.332;18.034;2022-08-19T02:15:56;53.80;;;31.48;;
18820;SDS011;9539;59.332;18.034;2022-08-19T02:18:23;51.63;;;30.35;;
18820;SDS011;9539;59.332;18.034;2022-08-19T02:20:49;52.08;;;30.95;;
18820;SDS011;9539;59.332;18.034;2022-08-19T02:23:17;46.65;;;31.02;;
18820;SDS011;9539;59.332;18.034;2022-08-19T02:25:44;49.70;;;30.75;;
18820;SDS011;9539;59.332;18.034;2022-08-19T02:28:13;51.83;;;31.58;;
18820;SDS011;9539;59.332;18.034;2022-08-19T02:30:40;46.63;;;30.98;;
18820;SDS011;9539;59.332;18.034;2022-08-19T02:33:09;47.47;;;31.42;;
18820;SDS011;9539;59.332;18.034;2022-08-19T02:35:35;48.53;;;31.35;;
18820;SDS011;9539;59.332;18.034;2022-08-19T02:38:02;50.63;;;31.80;;
18820;SDS011;9539;59.332;18.034;2022-08-19T02:40:48;54.97;;;32.80;;
18820;SDS011;9539;59.332;18.034;2022-08-19T02:43:17;46.35;;;29.45;;
18820;SDS011;9539;59.332;18.034;2022-08-19T02:45:45;48.72;;;31.73;;
18820;SDS011;9539;59.332;18.034;2022-08-19T02:48:17;54.08;;;32.83;;
18820;SDS011;9539;59.332;18.034;2022-08-19T02:50:45;51.80;;;32.65;;
18820;SDS011;9539;59.332;18.034;2022-08-19T02:53:13;52.20;;;32.13;;
18820;SDS011;9539;59.332;18.034;2022-08-19T02:55:43;53.72;;;33.47;;
18820;SDS011;9539;59.332;18.034;2022-08-19T02:58:11;56.67;;;31.67;;
18820;SDS011;9539;59.332;18.034;2022-08-19T03:00:42;51.75;;;31.98;;
18820;SDS011;9539;59.332;18.034;2022-08-19T03:03:10;50.28;;;31.85;;
18820;SDS011;9539;59.332;18.034;2022-08-19T03:05:39;49.70;;;31.48;;
18820;SDS011;9539;59.332;18.034;2022-08-19T03:08:06;50.00;;;33.00;;
18820;SDS011;9539;59.332;18.034;2022-08-19T03:10:33;52.20;;;33.47;;
18820;SDS011;9539;59.332;18.034;2022-08-19T03:13:09;55.13;;;32.85;;
18820;SDS011;9539;59.332;18.034;2022-08-19T03:15:38;53.53;;;33.10;;
18820;SDS011;9539;59.332;18.034;2022-08-19T03:18:06;55.25;;;31.92;;
18820;SDS011;9539;59.332;18.034;2022-08-19T03:20:32;53.38;;;31.73;;
18820;SDS011;9539;59.332;18.034;2022-08-19T03:23:00;59.10;;;35.03;;
18820;SDS011;9539;59.332;18.034;2022-08-19T03:25:27;72.28;;;35.75;;
18820;SDS011;9539;59.332;18.034;2022-08-19T03:27:54;63.35;;;34.80;;
18820;SDS011;9539;59.332;18.034;2022-08-19T03:30:20;68.43;;;38.10;;
18820;SDS011;9539;59.332;18.034;2022-08-19T03:32:48;60.53;;;36.60;;
18820;SDS011;9539;59.332;18.034;2022-08-19T03:35:14;64.15;;;37.10;;
18820;SDS011;9539;59.332;18.034;2022-08-19T03:37:41;57.65;;;34.90;;
18820;SDS011;9539;59.332;18.034;2022-08-19T03:40:09;51.58;;;34.60;;
18820;SDS011;9539;59.332;18.034;2022-08-19T03:42:36;50.17;;;32.95;;
18820;SDS011;9539;59.332;18.034;2022-08-19T03:45:04;49.65;;;33.65;;
18820;SDS011;9539;59.332;18.034;2022-08-19T03:47:32;52.78;;;32.78;;
18820;SDS011;9539;59.332;18.034;2022-08-19T03:49:59;57.97;;;34.65;;
18820;SDS011;9539;59.332;18.034;2022-08-19T03:52:25;56.03;;;35.45;;
18820;SDS011;9539;59.332;18.034;2022-08-19T03:54:52;50.65;;;32.20;;
18820;SDS011;9539;59.332;18.034;2022-08-19T03:57:20;47.88;;;33.97;;
18820;SDS011;9539;59.332;18.034;2022-08-19T03:59:47;58.05;;;34.95;;
18820;SDS011;9539;59.332;18.034;2022-08-19T04:02:14;48.30;;;32.67;;
18820;SDS011;9539;59.332;18.034;2022-08-19T04:04:42;43.10;;;31.48;;
18820;SDS011;9539;59.332;18.034;2022-08-19T04:07:09;47.83;;;31.38;;
18820;SDS011;9539;59.332;18.034;2022-08-19T04:09:37;55.38;;;32.88;;
18820;SDS011;9539;59.332;18.034;2022-08-19T04:12:04;47.40;;;31.25;;
18820;SDS011;9539;59.332;18.034;2022-08-19T04:14:33;47.00;;;32.30;;
18820;SDS011;9539;59.332;18.034;2022-08-19T04:17:01;53.33;;;34.40;;
18820;SDS011;9539;59.332;18.034;2022-08-19T04:19:29;52.03;;;33.47;;
18820;SDS011;9539;59.332;18.034;2022-08-19T04:21:57;55.58;;;35.33;;
18820;SDS011;9539;59.332;18.034;2022-08-19T04:24:24;45.83;;;32.22;;
18820;SDS011;9539;59.332;18.034;2022-08-19T04:26:51;50.20;;;34.33;;
18820;SDS011;9539;59.332;18.034;2022-08-19T04:29:19;46.95;;;31.02;;
18820;SDS011;9539;59.332;18.034;2022-08-19T04:31:52;45.28;;;30.48;;
18820;SDS011;9539;59.332;18.034;2022-08-19T04:34:20;47.30;;;28.67;;
18820;SDS011;9539;59.332;18.034;2022-08-19T04:36:49;40.30;;;29.77;;
18820;SDS011;9539;59.332;18.034;2022-08-19T04:39:19;38.40;;;27.27;;
18820;SDS011;9539;59.332;18.034;2022-08-19T04:41:48;40.85;;;30.08;;
18820;SDS011;9539;59.332;18.034;2022-08-19T04:44:32;42.20;;;29.65;;
18820;SDS011;9539;59.332;18.034;2022-08-19T04:47:02;44.75;;;29.60;;
18820;SDS011;9539;59.332;18.034;2022-08-19T04:49:30;40.20;;;28.15;;
18820;SDS011;9539;59.332;18.034;2022-08-19T04:51:57;40.28;;;28.60;;
18820;SDS011;9539;59.332;18.034;2022-08-19T04:54:24;44.50;;;30.08;;
18820;SDS011;9539;59.332;18.034;2022-08-19T04:56:52;47.88;;;31.90;;
18820;SDS011;9539;59.332;18.034;2022-08-19T04:59:19;45.55;;;30.30;;
18820;SDS011;9539;59.332;18.034;2022-08-19T05:01:47;40.25;;;27.42;;
18820;SDS011;9539;59.332;18.034;2022-08-19T05:04:16;45.45;;;30.17;;
18820;SDS011;9539;59.332;18.034;2022-08-19T05:06:45;38.22;;;27.63;;
18820;SDS011;9539;59.332;18.034;2022-08-19T05:09:13;44.65;;;29.33;;
18820;SDS011;9539;59.332;18.034;2022-08-19T05:11:40;40.45;;;28.67;;
18820;SDS011;9539;59.332;18.034;2022-08-19T05:14:07;40.78;;;25.52;;
18820;SDS011;9539;59.332;18.034;2022-08-19T05:16:37;34.92;;;26.42;;
18820;SDS011;9539;59.332;18.034;2022-08-19T05:19:04;37.03;;;26.40;;
18820;SDS011;9539;59.332;18.034;2022-08-19T05:21:49;42.28;;;29.35;;
18820;SDS011;9539;59.332;18.034;2022-08-19T05:24:34;41.10;;;28.95;;
18820;SDS011;9539;59.332;18.034;2022-08-19T05:27:00;42.60;;;28.83;;
18820;SDS011;9539;59.332;18.034;2022-08-19T05:29:28;40.38;;;28.23;;
18820;SDS011;9539;59.332;18.034;2022-08-19T05:31:57;39.80;;;26.58;;
18820;SDS011;9539;59.332;18.034;2022-08-19T05:34:24;43.03;;;27.33;;
18820;SDS011;9539;59.332;18.034;2022-08-19T05:36:54;36.03;;;25.15;;
18820;SDS011;9539;59.332;18.034;2022-08-19T05:39:23;37.45;;;24.27;;
18820;SDS011;9539;59.332;18.034;2022-08-19T05:41:52;33.50;;;22.88;;
18820;SDS011;9539;59.332;18.034;2022-08-19T05:44:22;33.83;;;22.45;;
18820;SDS011;9539;59.332;18.034;2022-08-19T05:46:49;31.67;;;20.95;;
18820;SDS011;9539;59.332;18.034;2022-08-19T05:49:18;29.80;;;21.40;;
18820;SDS011;9539;59.332;18.034;2022-08-19T05:51:46;29.85;;;20.75;;
18820;SDS011;9539;59.332;18.034;2022-08-19T05:54:14;28.73;;;21.42;;
18820;SDS011;9539;59.332;18.034;2022-08-19T05:56:41;33.35;;;20.73;;
18820;SDS011;9539;59.332;18.034;2022-08-19T05:59:10;31.35;;;20.73;;
18820;SDS011;9539;59.332;18.034;2022-08-19T06:01:37;29.42;;;19.17;;
18820;SDS011;9539;59.332;18.034;2022-08-19T06:04:05;25.13;;;18.67;;
18820;SDS011;9539;59.332;18.034;2022-08-19T06:06:33;27.13;;;18.17;;
18820;SDS011;9539;59.332;18.034;2022-08-19T06:09:00;21.15;;;16.08;;
18820;SDS011;9539;59.332;18.034;2022-08-19T06:11:34;22.23;;;17.42;;
18820;SDS011;9539;59.332;18.034;2022-08-19T06:14:02;24.83;;;17.13;;
18820;SDS011;9539;59.332;18.034;2022-08-19T06:16:33;23.98;;;17.00;;
18820;SDS011;9539;59.332;18.034;2022-08-19T06:19:00;20.88;;;16.45;;
18820;SDS011;9539;59.332;18.034;2022-08-19T06:21:29;20.77;;;16.23;;
18820;SDS011;9539;59.332;18.034;2022-08-19T06:23:56;20.45;;;15.95;;
18820;SDS011;9539;59.332;18.034;2022-08-19T06:26:24;18.27;;;15.20;;
18820;SDS011;9539;59.332;18.034;2022-08-19T06:28:53;20.90;;;13.30;;
18820;SDS011;9539;59.332;18.034;2022-08-19T06:31:21;20.58;;;13.15;;
18820;SDS011;9539;59.332;18.034;2022-08-19T06:33:51;16.13;;;13.02;;
18820;SDS011;9539;59.332;18.034;2022-08-19T06:36:20;14.80;;;12.63;;
18820;SDS011;9539;59.332;18.034;2022-08-19T06:38:52;21.02;;;13.35;;
18820;SDS011;9539;59.332;18.034;2022-08-19T06:41:19;18.85;;;12.52;;
18820;SDS011;9539;59.332;18.034;2022-08-19T06:43:46;15.18;;;11.70;;
18820;SDS011;9539;59.332;18.034;2022-08-19T06:46:15;19.02;;;12.93;;
18820;SDS011;9539;59.332;18.034;2022-08-19T06:48:43;15.75;;;11.63;;
18820;SDS011;9539;59.332;18.034;2022-08-19T06:51:10;18.08;;;11.52;;
18820;SDS011;9539;59.332;18.034;2022-08-19T06:53:40;20.50;;;11.82;;
18820;SDS011;9539;59.332;18.034;2022-08-19T06:56:12;15.13;;;11.00;;
18820;SDS011;9539;59.332;18.034;2022-08-19T06:58:39;12.35;;;9.30;;
18820;SDS011;9539;59.332;18.034;2022-08-19T07:01:07;16.50;;;10.85;;
18820;SDS011;9539;59.332;18.034;2022-08-19T07:03:36;16.77;;;10.30;;
18820;SDS011;9539;59.332;18.034;2022-08-19T07:06:04;15.15;;;10.23;;
18820;SDS011;9539;59.332;18.034;2022-08-19T07:08:33;12.73;;;9.70;;
18820;SDS011;9539;59.332;18.034;2022-08-19T07:11:01;16.63;;;9.18;;
18820;SDS011;9539;59.332;18.034;2022-08-19T07:13:28;13.65;;;9.68;;
18820;SDS011;9539;59.332;18.034;2022-08-19T07:16:02;14.55;;;9.80;;
18820;SDS011;9539;59.332;18.034;2022-08-19T07:18:30;15.02;;;8.70;;
18820;SDS011;9539;59.332;18.034;2022-08-19T07:21:03;16.95;;;9.55;;
18820;SDS011;9539;59.332;18.034;2022-08-19T07:23:31;15.32;;;8.05;;
18820;SDS011;9539;59.332;18.034;2022-08-19T07:25:58;16.20;;;8.43;;
18820;SDS011;9539;59.332;18.034;2022-08-19T07:28:31;16.48;;;8.40;;
18820;SDS011;9539;59.332;18.034;2022-08-19T07:30:57;14.20;;;8.80;;
18820;SDS011;9539;59.332;18.034;2022-08-19T07:33:26;11.45;;;7.50;;
18820;SDS011;9539;59.332;18.034;2022-08-19T07:35:55;13.55;;;8.57;;
18820;SDS011;9539;59.332;18.034;2022-08-19T07:38:23;14.90;;;7.43;;
18820;SDS011;9539;59.332;18.034;2022-08-19T07:40:50;10.38;;;7.53;;
18820;SDS011;9539;59.332;18.034;2022-08-19T07:43:19;16.35;;;7.75;;
18820;SDS011;9539;59.332;18.034;2022-08-19T07:45:50;14.77;;;7.25;;
18820;SDS011;9539;59.332;18.034;2022-08-19T07:48:17;10.82;;;7.22;;
18820;SDS011;9539;59.332;18.034;2022-08-19T07:50:44;16.02;;;7.35;;
18820;SDS011;9539;59.332;18.034;2022-08-19T07:53:10;11.40;;;7.15;;
18820;SDS011;9539;59.332;18.034;2022-08-19T07:55:39;14.77;;;6.90;;
18820;SDS011;9539;59.332;18.034;2022-08-19T07:58:06;12.73;;;7.22;;
18820;SDS011;9539;59.332;18.034;2022-08-19T08:00:33;12.05;;;6.85;;
18820;SDS011;9539;59.332;18.034;2022-08-19T08:03:00;14.48;;;7.43;;
18820;SDS011;9539;59.332;18.034;2022-08-19T08:05:27;16.50;;;7.07;;
18820;SDS011;9539;59.332;18.034;2022-08-19T08:08:11;12.93;;;7.10;;
18820;SDS011;9539;59.332;18.034;2022-08-19T08:11:03;11.20;;;6.55;;
18820;SDS011;9539;59.332;18.034;2022-08-19T08:13:31;12.38;;;7.20;;
18820;SDS011;9539;59.332;18.034;2022-08-19T08:16:00;10.82;;;7.10;;
18820;SDS011;9539;59.332;18.034;2022-08-19T08:18:27;9.98;;;6.75;;
18820;SDS011;9539;59.332;18.034;2022-08-19T08:20:54;10.68;;;6.97;;
18820;SDS011;9539;59.332;18.034;2022-08-19T08:23:21;11.70;;;7.35;;
18820;SDS011;9539;59.332;18.034;2022-08-19T08:25:50;13.00;;;6.95;;
18820;SDS011;9539;59.332;18.034;2022-08-19T08:28:18;9.60;;;6.38;;
18820;SDS011;9539;59.332;18.034;2022-08-19T08:30:46;12.57;;;6.32;;
18820;SDS011;9539;59.332;18.034;2022-08-19T08:33:16;13.95;;;6.63;;
18820;SDS011;9539;59.332;18.034;2022-08-19T08:35:44;10.02;;;5.88;;
18820;SDS011;9539;59.332;18.034;2022-08-19T08:38:11;12.32;;;5.82;;
18820;SDS011;9539;59.332;18.034;2022-08-19T08:40:39;10.32;;;5.80;;
18820;SDS011;9539;59.332;18.034;2022-08-19T08:43:13;10.95;;;5.88;;
18820;SDS011;9539;59.332;18.034;2022-08-19T08:45:49;10.60;;;5.25;;
18820;SDS011;9539;59.332;18.034;2022-08-19T08:48:21;12.10;;;6.55;;
18820;SDS011;9539;59.332;18.034;2022-08-19T08:50:53;12.55;;;6.25;;
18820;SDS011;9539;59.332;18.034;2022-08-19T08:53:22;11.52;;;5.78;;
18820;SDS011;9539;59.332;18.034;2022-08-19T08:55:51;11.63;;;6.85;;
18820;SDS011;9539;59.332;18.034;2022-08-19T08:58:24;10.95;;;5.93;;
18820;SDS011;9539;59.332;18.034;2022-08-19T09:00:55;10.98;;;5.70;;
18820;SDS011;9539;59.332;18.034;2022-08-19T09:03:23;10.82;;;5.72;;
18820;SDS011;9539;59.332;18.034;2022-08-19T09:05:55;12.90;;;6.10;;
18820;SDS011;9539;59.332;18.034;2022-08-19T09:08:27;10.18;;;5.93;;
18820;SDS011;9539;59.332;18.034;2022-08-19T09:11:00;9.75;;;5.80;;
18820;SDS011;9539;59.332;18.034;2022-08-19T09:13:35;10.23;;;5.88;;
18820;SDS011;9539;59.332;18.034;2022-08-19T09:16:09;13.98;;;5.78;;
18820;SDS011;9539;59.332;18.034;2022-08-19T09:18:39;11.27;;;6.00;;
18820;SDS011;9539;59.332;18.034;2022-08-19T09:21:08;14.20;;;6.22;;
18820;SDS011;9539;59.332;18.034;2022-08-19T09:23:35;12.00;;;5.53;;
18820;SDS011;9539;59.332;18.034;2022-08-19T09:26:06;11.18;;;6.25;;
18820;SDS011;9539;59.332;18.034;2022-08-19T09:28:35;11.70;;;5.82;;
18820;SDS011;9539;59.332;18.034;2022-08-19T09:31:02;12.00;;;5.85;;
18820;SDS011;9539;59.332;18.034;2022-08-19T09:33:29;15.77;;;5.90;;
18820;SDS011;9539;59.332;18.034;2022-08-19T09:36:01;11.00;;;5.53;;
18820;SDS011;9539;59.332;18.034;2022-08-19T09:38:30;15.82;;;6.15;;
18820;SDS011;9539;59.332;18.034;2022-08-19T09:41:01;13.18;;;5.97;;
18820;SDS011;9539;59.332;18.034;2022-08-19T09:43:29;17.35;;;5.80;;
18820;SDS011;9539;59.332;18.034;2022-08-19T09:45:57;13.40;;;5.78;;
18820;SDS011;9539;59.332;18.034;2022-08-19T09:48:25;11.07;;;6.43;;
18820;SDS011;9539;59.332;18.034;2022-08-19T09:50:52;14.40;;;5.65;;
18820;SDS011;9539;59.332;18.034;2022-08-19T09:53:19;11.85;;;5.47;;
18820;SDS011;9539;59.332;18.034;2022-08-19T09:55:47;9.20;;;5.40;;
18820;SDS011;9539;59.332;18.034;2022-08-19T09:58:14;11.18;;;5.32;;
18820;SDS011;9539;59.332;18.034;2022-08-19T10:00:40;11.07;;;5.55;;
18820;SDS011;9539;59.332;18.034;2022-08-19T10:03:08;12.88;;;5.40;;
18820;SDS011;9539;59.332;18.034;2022-08-19T10:05:36;13.68;;;5.95;;
18820;SDS011;9539;59.332;18.034;2022-08-19T10:08:15;12.95;;;5.78;;
18820;SDS011;9539;59.332;18.034;2022-08-19T10:10:44;15.75;;;5.32;;
18820;SDS011;9539;59.332;18.034;2022-08-19T10:13:12;11.73;;;6.03;;
18820;SDS011;9539;59.332;18.034;2022-08-19T10:15:41;8.50;;;5.10;;
18820;SDS011;9539;59.332;18.034;2022-08-19T10:18:09;11.27;;;5.70;;
18820;SDS011;9539;59.332;18.034;2022-08-19T10:20:38;12.20;;;6.32;;
18820;SDS011;9539;59.332;18.034;2022-08-19T10:23:06;9.98;;;5.60;;
18820;SDS011;9539;59.332;18.034;2022-08-19T10:25:33;14.07;;;5.78;;
18820;SDS011;9539;59.332;18.034;2022-08-19T10:28:00;11.35;;;5.30;;
18820;SDS011;9539;59.332;18.034;2022-08-19T10:30:26;12.13;;;5.40;;
18820;SDS011;9539;59.332;18.034;2022-08-19T10:32:54;13.63;;;5.53;;
18820;SDS011;9539;59.332;18.034;2022-08-19T10:35:22;10.43;;;5.25;;
18820;SDS011;9539;59.332;18.034;2022-08-19T10:37:49;12.02;;;5.20;;
18820;SDS011;9539;59.332;18.034;2022-08-19T10:40:17;11.20;;;5.60;;
18820;SDS011;9539;59.332;18.034;2022-08-19T10:42:44;12.32;;;5.40;;
18820;SDS011;9539;59.332;18.034;2022-08-19T10:45:10;8.23;;;5.63;;
18820;SDS011;9539;59.332;18.034;2022-08-19T10:47:37;10.35;;;5.10;;
18820;SDS011;9539;59.332;18.034;2022-08-19T10:50:04;15.68;;;5.50;;
18820;SDS011;9539;59.332;18.034;2022-08-19T10:53:03;11.73;;;4.95;;
18820;SDS011;9539;59.332;18.034;2022-08-19T10:55:30;10.07;;;5.13;;
18820;SDS011;9539;59.332;18.034;2022-08-19T10:58:17;13.80;;;5.57;;
18820;SDS011;9539;59.332;18.034;2022-08-19T11:00:51;11.18;;;5.28;;
18820;SDS011;9539;59.332;18.034;2022-08-19T11:03:19;11.88;;;5.35;;
18820;SDS011;9539;59.332;18.034;2022-08-19T11:05:47;10.30;;;5.20;;
18820;SDS011;9539;59.332;18.034;2022-08-19T11:08:24;11.18;;;5.32;;
18820;SDS011;9539;59.332;18.034;2022-08-19T11:10:52;7.68;;;4.65;;
18820;SDS011;9539;59.332;18.034;2022-08-19T11:13:23;11.43;;;4.95;;
18820;SDS011;9539;59.332;18.034;2022-08-19T11:15:56;10.95;;;4.78;;
18820;SDS011;9539;59.332;18.034;2022-08-19T11:18:23;5.50;;;4.63;;
18820;SDS011;9539;59.332;18.034;2022-08-19T11:20:51;12.23;;;5.10;;
18820;SDS011;9539;59.332;18.034;2022-08-19T11:23:18;9.05;;;4.72;;
18820;SDS011;9539;59.332;18.034;2022-08-19T11:25:46;8.75;;;4.95;;
18820;SDS011;9539;59.332;18.034;2022-08-19T11:28:13;8.73;;;5.03;;
18820;SDS011;9539;59.332;18.034;2022-08-19T11:30:39;13.07;;;4.93;;
18820;SDS011;9539;59.332;18.034;2022-08-19T11:33:06;7.88;;;5.18;;
18820;SDS011;9539;59.332;18.034;2022-08-19T11:35:38;7.20;;;4.97;;
18820;SDS011;9539;59.332;18.034;2022-08-19T11:38:05;8.93;;;5.00;;
18820;SDS011;9539;59.332;18.034;2022-08-19T11:40:32;10.55;;;5.15;;
18820;SDS011;9539;59.332;18.034;2022-08-19T11:43:00;7.65;;;5.18;;
18820;SDS011;9539;59.332;18.034;2022-08-19T11:45:27;11.77;;;5.30;;
18820;SDS011;9539;59.332;18.034;2022-08-19T11:47:54;10.02;;;5.40;;
18820;SDS011;9539;59.332;18.034;2022-08-19T11:50:22;8.13;;;5.00;;
18820;SDS011;9539;59.332;18.034;2022-08-19T11:52:49;8.63;;;4.93;;
18820;SDS011;9539;59.332;18.034;2022-08-19T11:55:17;10.00;;;4.82;;
18820;SDS011;9539;59.332;18.034;2022-08-19T11:57:44;6.95;;;4.85;;
18820;SDS011;9539;59.332;18.034;2022-08-19T12:00:13;7.90;;;4.88;;
18820;SDS011;9539;59.332;18.034;2022-08-19T12:02:41;10.32;;;4.82;;
18820;SDS011;9539;59.332;18.034;2022-08-19T12:05:08;7.63;;;4.95;;
18820;SDS011;9539;59.332;18.034;2022-08-19T12:07:35;6.60;;;4.97;;
18820;SDS011;9539;59.332;18.034;2022-08-19T12:10:02;12.57;;;5.00;;
18820;SDS011;9539;59.332;18.034;2022-08-19T12:12:29;6.80;;;4.80;;
18820;SDS011;9539;59.332;18.034;2022-08-19T12:14:56;11.63;;;5.00;;
18820;SDS011;9539;59.332;18.034;2022-08-19T12:17:25;6.97;;;4.88;;
18820;SDS011;9539;59.332;18.034;2022-08-19T12:19:52;10.68;;;4.68;;
18820;SDS011;9539;59.332;18.034;2022-08-19T12:22:19;6.70;;;4.70;;
18820;SDS011;9539;59.332;18.034;2022-08-19T12:24:46;7.45;;;5.00;;
18820;SDS011;9539;59.332;18.034;2022-08-19T12:27:15;12.55;;;4.78;;
18820;SDS011;9539;59.332;18.034;2022-08-19T12:29:41;10.95;;;5.38;;
18820;SDS011;9539;59.332;18.034;2022-08-19T12:32:08;11.90;;;5.15;;
18820;SDS011;9539;59.332;18.034;2022-08-19T12:34:36;13.07;;;5.00;;
18820;SDS011;9539;59.332;18.034;2022-08-19T12:37:04;7.75;;;4.68;;
18820;SDS011;9539;59.332;18.034;2022-08-19T12:39:33;14.73;;;5.05;;
18820;SDS011;9539;59.332;18.034;2022-08-19T12:42:01;10.27;;;5.03;;
18820;SDS011;9539;59.332;18.034;2022-08-19T12:44:28;9.85;;;4.82;;
18820;SDS011;9539;59.332;18.034;2022-08-19T12:46:55;12.02;;;5.00;;
18820;SDS011;9539;59.332;18.034;2022-08-19T12:49:22;9.05;;;4.75;;
18820;SDS011;9539;59.332;18.034;2022-08-19T12:51:51;13.57;;;4.85;;
18820;SDS011;9539;59.332;18.034;2022-08-19T12:54:18;11.63;;;5.00;;
18820;SDS011;9539;59.332;18.034;2022-08-19T12:56:45;9.18;;;5.30;;
18820;SDS011;9539;59.332;18.034;2022-08-19T12:59:11;9.35;;;5.25;;
18820;SDS011;9539;59.332;18.034;2022-08-19T13:01:40;14.07;;;5.15;;
18820;SDS011;9539;59.332;18.034;2022-08-19T13:04:06;10.40;;;5.47;;
18820;SDS011;9539;59.332;18.034;2022-08-19T13:06:33;17.65;;;5.00;;
18820;SDS011;9539;59.332;18.034;2022-08-19T13:09:02;14.40;;;5.75;;
18820;SDS011;9539;59.332;18.034;2022-08-19T13:11:29;9.13;;;5.38;;
18820;SDS011;9539;59.332;18.034;2022-08-19T13:13:57;11.30;;;5.57;;
18820;SDS011;9539;59.332;18.034;2022-08-19T13:16:24;12.15;;;5.05;;
18820;SDS011;9539;59.332;18.034;2022-08-19T13:18:53;12.82;;;4.95;;
18820;SDS011;9539;59.332;18.034;2022-08-19T13:21:21;10.05;;;4.90;;
18820;SDS011;9539;59.332;18.034;2022-08-19T13:23:49;9.93;;;5.40;;
18820;SDS011;9539;59.332;18.034;2022-08-19T13:26:18;8.98;;;5.38;;
18820;SDS011;9539;59.332;18.034;2022-08-19T13:28:46;8.30;;;5.28;;
18820;SDS011;9539;59.332;18.034;2022-08-19T13:31:30;15.75;;;5.90;;
18820;SDS011;9539;59.332;18.034;2022-08-19T13:34:29;10.77;;;6.18;;
18820;SDS011;9539;59.332;18.034;2022-08-19T13:36:57;8.07;;;5.38;;
18820;SDS011;9539;59.332;18.034;2022-08-19T13:39:24;11.68;;;5.70;;
18820;SDS011;9539;59.332;18.034;2022-08-19T13:41:53;12.60;;;5.43;;
18820;SDS011;9539;59.332;18.034;2022-08-19T13:44:20;8.75;;;5.43;;
18820;SDS011;9539;59.332;18.034;2022-08-19T13:46:50;11.30;;;6.00;;
18820;SDS011;9539;59.332;18.034;2022-08-19T13:49:18;19.90;;;5.90;;
18820;SDS011;9539;59.332;18.034;2022-08-19T13:51:45;13.63;;;5.95;;
18820;SDS011;9539;59.332;18.034;2022-08-19T13:54:13;13.88;;;6.05;;
18820;SDS011;9539;59.332;18.034;2022-08-19T13:56:40;11.95;;;6.07;;
18820;SDS011;9539;59.332;18.034;2022-08-19T13:59:12;14.23;;;6.35;;
18820;SDS011;9539;59.332;18.034;2022-08-19T14:01:42;17.35;;;6.57;;
18820;SDS011;9539;59.332;18.034;2022-08-19T14:04:12;14.48;;;6.63;;
18820;SDS011;9539;59.332;18.034;2022-08-19T14:06:38;13.15;;;5.60;;
18820;SDS011;9539;59.332;18.034;2022-08-19T14:09:07;14.85;;;5.97;;
18820;SDS011;9539;59.332;18.034;2022-08-19T14:11:34;10.23;;;5.90;;
18820;SDS011;9539;59.332;18.034;2022-08-19T14:14:01;9.25;;;5.82;;
18820;SDS011;9539;59.332;18.034;2022-08-19T14:16:29;10.02;;;6.07;;
18820;SDS011;9539;59.332;18.034;2022-08-19T14:18:58;17.08;;;5.88;;
18820;SDS011;9539;59.332;18.034;2022-08-19T14:21:25;9.82;;;6.15;;
18820;SDS011;9539;59.332;18.034;2022-08-19T14:23:52;16.98;;;6.20;;
18820;SDS011;9539;59.332;18.034;2022-08-19T14:26:19;12.93;;;6.82;;
18820;SDS011;9539;59.332;18.034;2022-08-19T14:28:48;13.00;;;6.22;;
18820;SDS011;9539;59.332;18.034;2022-08-19T14:31:15;12.40;;;6.18;;
18820;SDS011;9539;59.332;18.034;2022-08-19T14:33:45;17.45;;;8.95;;
18820;SDS011;9539;59.332;18.034;2022-08-19T14:36:12;11.85;;;7.07;;
18820;SDS011;9539;59.332;18.034;2022-08-19T14:38:39;12.23;;;7.03;;
18820;SDS011;9539;59.332;18.034;2022-08-19T14:41:07;15.27;;;7.00;;